Terminal Aerodrome Forecast
Issued by NWS

Home | Current Version | Previous Version | Text Only | Print | Product List | Glossary On
Versions: 1 2 3 4 5 6 7 8 9 10 11 12 13
310
FTUS46 KSGX 201120
TAFPSP
TAF
KPSP 201120Z 2012/2112 VRB05KT P6SM SCT150
     FM202000 12009KT P6SM SCT120
     FM210200 33011KT P6SM SKC
     FM210600 VRB05KT P6SM SCT250=

USA.gov is the U.S. government's official web portal to all federal, state and local government web resources and services.